Back to Top

Language: 

My Weather Underground Personal Weather Station Historical Data with Graphs...

Delerius Weather Station Historical Data
Daily Summary for September 20, 2017 Units:  Metric    English   Both
« Previous Day
Next Day »
Daily Weekly Monthly Yearly Custom
  High: Low: Average:
Temperature: 18.7 °C 6.3 °C 11.8 °C
Dew Point: 13.2 °C 5.4 °C 9.9 °C
Humidity: 97 % 69 % 89 %
Wind Speed: 40.2 km/h 0 km/h 7.9 km/h
Wind Gust: 40.2 km/h - -
Wind:- - SSW
Pressure: 1018.8 hPa 1011.7 hPa -
Precipitation: 0.25 mm    
Historical Graphs
 
 
Tabular Data for September 20, 2017
Time Temperature Dew Point Pressure Wind Wind Speed Wind Gust Humidity Rainfall Rate (Hourly) solar Conditions
00:00 7.6 °C 6.4 °C 1018.8 hPa Calm     92 % 0 mm 0 W/m2
00:05 7.6 °C 6.4 °C 1018.8 hPa Calm     92 % 0 mm 0 W/m2
00:10 7.5 °C 6.3 °C 1018.8 hPa Calm     92 % 0 mm 0 W/m2
00:15 7.4 °C 6.2 °C 1018.8 hPa Calm     92 % 0 mm 0 W/m2
00:20 7.4 °C 6.3 °C 1018.5 hPa Calm     93 % 0 mm 0 W/m2
00:25 7.4 °C 6.3 °C 1018.5 hPa Calm     93 % 0 mm 0 W/m2
00:30 7.3 °C 6.2 °C 1018.5 hPa Calm     93 % 0 mm 0 W/m2
00:35 7.3 °C 6.2 °C 1018.5 hPa Calm     93 % 0 mm 0 W/m2
00:40 7.3 °C 6.2 °C 1018.5 hPa Calm     93 % 0 mm 0 W/m2
00:45 7.3 °C 6.2 °C 1018.5 hPa Calm     93 % 0 mm 0 W/m2
00:50 7.3 °C 6.4 °C 1018.5 hPa Calm     94 % 0 mm 0 W/m2
00:55 7.3 °C 6.2 °C 1018.5 hPa Calm     93 % 0 mm 0 W/m2
01:00 7.3 °C 6.4 °C 1018.5 hPa Calm     94 % 0 mm 0 W/m2
01:05 7.3 °C 6.2 °C 1018.5 hPa Calm     93 % 0 mm 0 W/m2
01:10 7.2 °C 6.2 °C 1018.5 hPa Calm     93 % 0 mm 0 W/m2
01:12 7.2 °C 6.2 °C 1018.5 hPa Calm     93 % 0 mm 0 W/m2
01:17 7.1 °C 6.1 °C 1018.5 hPa Calm     93 % 0 mm 0 W/m2
01:22 7 °C 5.9 °C 1018.5 hPa Calm     93 % 0 mm 0 W/m2
01:27 6.9 °C 5.8 °C 1018.5 hPa Calm   4.8 km/h 93 % 0 mm 0 W/m2
01:32 6.9 °C 6 °C 1018.5 hPa Calm   4.8 km/h 94 % 0 mm 0 W/m2
01:37 6.9 °C 6 °C 1018.5 hPa Calm   3.2 km/h 94 % 0 mm 0 W/m2
01:42 6.9 °C 6 °C 1018.5 hPa Calm     94 % 0 mm 0 W/m2
01:47 6.9 °C 6 °C 1018.2 hPa Calm     94 % 0 mm 0 W/m2
01:52 6.9 °C 6 °C 1018.2 hPa Calm     94 % 0 mm 0 W/m2
01:57 6.8 °C 5.9 °C 1018.2 hPa Calm     94 % 0 mm 0 W/m2
02:02 6.8 °C 5.9 °C 1018.2 hPa Calm     94 % 0 mm 0 W/m2
02:07 6.7 °C 5.8 °C 1018.2 hPa Calm     94 % 0 mm 0 W/m2
02:12 6.7 °C 5.8 °C 1018.2 hPa Calm     94 % 0 mm 0 W/m2
02:17 6.6 °C 5.7 °C 1018.2 hPa Calm     94 % 0 mm 0 W/m2
02:22 6.6 °C 5.7 °C 1018.2 hPa Calm     94 % 0 mm 0 W/m2
02:27 6.6 °C 5.7 °C 1018.2 hPa Calm     94 % 0 mm 0 W/m2
02:32 6.6 °C 5.7 °C 1018.2 hPa Calm     94 % 0 mm 0 W/m2
02:37 6.6 °C 5.7 °C 1018.2 hPa Calm     94 % 0 mm 0 W/m2
02:42 6.5 °C 5.6 °C 1018.2 hPa Calm     94 % 0 mm 0 W/m2
02:47 6.5 °C 5.6 °C 1018.2 hPa Calm     94 % 0 mm 0 W/m2
02:52 6.6 °C 5.8 °C 1018.2 hPa Calm     95 % 0 mm 0 W/m2
02:57 6.6 °C 5.8 °C 1018.2 hPa Calm     95 % 0 mm 0 W/m2
03:02 6.6 °C 5.8 °C 1017.8 hPa Calm     95 % 0 mm 0 W/m2
03:07 6.6 °C 5.8 °C 1018.2 hPa Calm     95 % 0 mm 0 W/m2
03:12 6.6 °C 5.8 °C 1018.2 hPa Calm     95 % 0 mm 0 W/m2
03:17 6.4 °C 5.5 °C 1017.8 hPa Calm     94 % 0 mm 0 W/m2
03:22 6.3 °C 5.4 °C 1017.8 hPa Calm     94 % 0 mm 0 W/m2
03:28 6.3 °C 5.6 °C 1017.8 hPa Calm     95 % 0 mm 0 W/m2
03:33 6.3 °C 5.6 °C 1017.8 hPa Calm     95 % 0 mm 0 W/m2
03:38 6.3 °C 5.6 °C 1017.8 hPa Calm     95 % 0 mm 0 W/m2
03:43 6.3 °C 5.6 °C 1017.8 hPa Calm     95 % 0 mm 0 W/m2
03:48 6.3 °C 5.6 °C 1017.8 hPa Calm     95 % 0 mm 0 W/m2
03:53 6.4 °C 5.7 °C 1017.8 hPa Calm   6.4 km/h 95 % 0 mm 0 W/m2
03:58 6.6 °C 6 °C 1017.8 hPa WSW 1.6 km/h 6.4 km/h 96 % 0 mm 0 W/m2
04:03 6.7 °C 6.1 °C 1017.8 hPa Calm   4.8 km/h 96 % 0 mm 0 W/m2
04:08 6.8 °C 6.2 °C 1017.5 hPa Calm     96 % 0 mm 0 W/m2
04:14 6.8 °C 6.1 °C 1017.5 hPa Calm     95 % 0 mm 0 W/m2
04:19 6.8 °C 6.1 °C 1017.5 hPa Calm   4.8 km/h 95 % 0 mm 0 W/m2
04:20 6.8 °C 6.1 °C 1017.5 hPa Calm   4.8 km/h 95 % 0 mm 0 W/m2
04:22 6.9 °C 6.2 °C 1017.5 hPa Calm   4.8 km/h 95 % 0 mm 0 W/m2
04:25 6.9 °C 6.3 °C 1017.5 hPa Calm   4.8 km/h 96 % 0 mm 0 W/m2
04:30 7.1 °C 6.5 °C 1017.5 hPa Calm   3.2 km/h 96 % 0 mm 0 W/m2
04:35 7.1 °C 6.3 °C 1017.2 hPa Calm     95 % 0 mm 0 W/m2
04:40 7.3 °C 6.7 °C 1017.2 hPa Calm     96 % 0 mm 0 W/m2
04:45 7.7 °C 7.1 °C 1017.2 hPa Calm     96 % 0 mm 0 W/m2
04:50 7.9 °C 7.4 °C 1017.2 hPa Calm   1.6 km/h 97 % 0 mm 0 W/m2
04:51 7.9 °C 7.3 °C 1017.2 hPa Calm   1.6 km/h 96 % 0 mm 0 W/m2
04:56 7.9 °C 7.3 °C 1017.2 hPa Calm     96 % 0 mm 0 W/m2
05:01 7.8 °C 7.2 °C 1017.2 hPa Calm     96 % 0 mm 0 W/m2
05:06 7.7 °C 6.9 °C 1017.2 hPa Calm     95 % 0 mm 0 W/m2
05:11 7.6 °C 6.8 °C 1017.2 hPa Calm   6.4 km/h 95 % 0 mm 0 W/m2
05:16 7.7 °C 7.1 °C 1017.2 hPa Calm   6.4 km/h 96 % 0 mm 0 W/m2
05:21 7.8 °C 7.2 °C 1017.2 hPa Calm     96 % 0 mm 0 W/m2
05:26 7.9 °C 7.3 °C 1016.8 hPa Calm     96 % 0 mm 0 W/m2
05:31 8.2 °C 7.6 °C 1017.2 hPa Calm     96 % 0 mm 0 W/m2
05:36 8.3 °C 7.7 °C 1016.8 hPa Calm     96 % 0 mm 0 W/m2
05:41 8.4 °C 7.8 °C 1016.8 hPa Calm     96 % 0 mm 0 W/m2
05:46 8.4 °C 7.8 °C 1016.8 hPa Calm     96 % 0 mm 0 W/m2
05:51 8.6 °C 8 °C 1016.8 hPa Calm     96 % 0 mm 0 W/m2
05:56 8.7 °C 8.1 °C 1016.8 hPa Calm     96 % 0 mm 0 W/m2
06:01 8.8 °C 8.2 °C 1016.8 hPa Calm     96 % 0 mm 0 W/m2
06:06 9 °C 8.4 °C 1016.8 hPa Calm     96 % 0 mm 0 W/m2
06:11 9.1 °C 8.5 °C 1016.8 hPa Calm     96 % 0 mm 0 W/m2
06:16 8.9 °C 8.3 °C 1016.8 hPa Calm     96 % 0 mm 0 W/m2
06:21 8.9 °C 8.3 °C 1016.8 hPa Calm     96 % 0 mm 0 W/m2
06:26 9.1 °C 8.5 °C 1016.8 hPa Calm     96 % 0 mm 0 W/m2
06:31 9.2 °C 8.6 °C 1016.8 hPa Calm     96 % 0 mm 0 W/m2
06:36 9.4 °C 8.9 °C 1016.8 hPa Calm     97 % 0 mm 0 W/m2
06:41 9.6 °C 9 °C 1016.8 hPa Calm     96 % 0 mm 0 W/m2
06:46 9.6 °C 9 °C 1016.8 hPa Calm     96 % 0 mm 0 W/m2
06:51 9.6 °C 9 °C 1016.5 hPa Calm   3.2 km/h 96 % 0 mm 5 W/m2
06:56 9.7 °C 9.1 °C 1016.5 hPa Calm   3.2 km/h 96 % 0 mm 5 W/m2
07:01 9.8 °C 9.2 °C 1016.5 hPa WSW 1.6 km/h 3.2 km/h 96 % 0 mm 0 W/m2
07:06 9.9 °C 9.3 °C 1016.5 hPa WSW 1.6 km/h 6.4 km/h 96 % 0 mm 0 W/m2
07:11 10.2 °C 9.7 °C 1016.5 hPa WSW 1.6 km/h 6.4 km/h 97 % 0 mm 5 W/m2
07:16 10.3 °C 9.7 °C 1016.5 hPa WSW 1.6 km/h 6.4 km/h 96 % 0 mm 5 W/m2
07:21 10.4 °C 9.8 °C 1016.5 hPa WSW 1.6 km/h 6.4 km/h 96 % 0 mm 5 W/m2
07:22 10.4 °C 9.8 °C 1016.5 hPa WSW 1.6 km/h 6.4 km/h 96 % 0 mm 5 W/m2
07:27 10.6 °C 10 °C 1016.5 hPa Calm   4.8 km/h 96 % 0 mm 9 W/m2
07:32 10.6 °C 10 °C 1016.1 hPa Calm   3.2 km/h 96 % 0 mm 14 W/m2
07:37 10.7 °C 10.1 °C 1016.1 hPa Calm   6.4 km/h 96 % 0 mm 16 W/m2
07:42 10.8 °C 10.2 °C 1016.1 hPa Calm   6.4 km/h 96 % 0 mm 19 W/m2
07:47 10.9 °C 10.3 °C 1016.5 hPa Calm   1.6 km/h 96 % 0 mm 21 W/m2
07:52 11 °C 10.4 °C 1016.1 hPa SW 1.6 km/h 8 km/h 96 % 0 mm 19 W/m2
07:57 11.1 °C 10.5 °C 1016.1 hPa SW 1.6 km/h 8 km/h 96 % 0 mm 26 W/m2
08:02 11.2 °C 10.6 °C 1016.1 hPa Calm   3.2 km/h 96 % 0 mm 26 W/m2
08:07 11.2 °C 10.6 °C 1016.1 hPa Calm     96 % 0 mm 25 W/m2
08:12 11.3 °C 10.7 °C 1016.1 hPa Calm     96 % 0 mm 25 W/m2
08:17 11.4 °C 10.8 °C 1016.1 hPa Calm   3.2 km/h 96 % 0 mm 33 W/m2
08:22 11.5 °C 10.9 °C 1016.1 hPa SSW 1.6 km/h 8 km/h 96 % 0 mm 54 W/m2
08:27 11.6 °C 11 °C 1016.1 hPa SSW 3.2 km/h 9.7 km/h 96 % 0 mm 76 W/m2
08:32 11.8 °C 11.2 °C 1016.1 hPa SW 6.4 km/h 12.9 km/h 96 % 0 mm 93 W/m2
08:37 12 °C 11.4 °C 1016.1 hPa SW 9.7 km/h 16.1 km/h 96 % 0 mm 86 W/m2
08:38 12 °C 11.4 °C 1016.1 hPa SW 9.7 km/h 16.1 km/h 96 % 0 mm 86 W/m2
08:43 12.2 °C 11.4 °C 1016.1 hPa SW 8 km/h 14.5 km/h 95 % 0 mm 118 W/m2
08:48 12.3 °C 11.5 °C 1016.1 hPa SW 6.4 km/h 12.9 km/h 95 % 0 mm 118 W/m2
08:53 12.4 °C 11.6 °C 1016.1 hPa SW 4.8 km/h 12.9 km/h 95 % 0 mm 144 W/m2
08:58 12.6 °C 11.7 °C 1016.1 hPa WSW 6.4 km/h 12.9 km/h 94 % 0 mm 162 W/m2
09:03 12.9 °C 11.9 °C 1016.1 hPa WSW 8 km/h 12.9 km/h 94 % 0 mm 221 W/m2
09:08 13.2 °C 12.3 °C 1015.8 hPa SW 6.4 km/h 11.3 km/h 94 % 0 mm 181 W/m2
09:09 13.2 °C 12.3 °C 1015.8 hPa SW 6.4 km/h 12.9 km/h 94 % 0 mm 169 W/m2
09:14 13.5 °C 12.2 °C 1015.8 hPa SSW 6.4 km/h 16.1 km/h 92 % 0 mm 151 W/m2
09:19 13.8 °C 12.3 °C 1015.8 hPa SSW 9.7 km/h 16.1 km/h 91 % 0 mm 359 W/m2
09:45 14.6 °C 12.1 °C 1015.8 hPa SSW 16.1 km/h 16.1 km/h 85 % 0 mm 370 W/m2
10:00 15.2 °C 12.1 °C 1015.8 hPa SW 20.9 km/h 20.9 km/h 82 % 0 mm 444 W/m2
10:15 15.7 °C 12.7 °C 1015.8 hPa SW 16.1 km/h 16.1 km/h 82 % 0 mm 364 W/m2
10:30 16.1 °C 12.7 °C 1015.5 hPa SW 20.9 km/h 20.9 km/h 80 % 0 mm 369 W/m2
10:45 16.3 °C 12.6 °C 1015.5 hPa SW 20.9 km/h 20.9 km/h 79 % 0 mm 436 W/m2
11:00 16.6 °C 12.9 °C 1015.5 hPa SW 24.1 km/h 24.1 km/h 79 % 0 mm 446 W/m2
11:15 16.4 °C 12.8 °C 1015.1 hPa SSW 24.1 km/h 24.1 km/h 79 % 0 mm 562 W/m2
11:30 17.1 °C 13.1 °C 1015.1 hPa SW 29 km/h 29 km/h 77 % 0 mm 670 W/m2
11:45 17.7 °C 13.2 °C 1015.1 hPa SW 25.7 km/h 25.7 km/h 75 % 0 mm 398 W/m2
12:00 17.6 °C 13.1 °C 1014.8 hPa SW 25.7 km/h 25.7 km/h 75 % 0 mm 312 W/m2
12:15 17.7 °C 13 °C 1014.8 hPa SW 30.6 km/h 30.6 km/h 74 % 0 mm 388 W/m2
12:30 17.8 °C 13.1 °C 1014.4 hPa SW 29 km/h 29 km/h 74 % 0 mm 315 W/m2
12:45 17.7 °C 12.6 °C 1014.4 hPa SW 24.1 km/h 24.1 km/h 72 % 0 mm 335 W/m2
13:00 17.8 °C 12.9 °C 1014.4 hPa SW 24.1 km/h 24.1 km/h 73 % 0 mm 307 W/m2
13:15 17.9 °C 12.6 °C 1014.1 hPa SW 30.6 km/h 30.6 km/h 71 % 0 mm 354 W/m2
13:30 18.1 °C 12.9 °C 1014.1 hPa SW 29 km/h 29 km/h 72 % 0 mm 417 W/m2
13:45 18.5 °C 12.7 °C 1014.1 hPa SSW 32.2 km/h 32.2 km/h 69 % 0 mm 640 W/m2
14:00 18.7 °C 12.9 °C 1014.1 hPa SW 37 km/h 37 km/h 69 % 0 mm 369 W/m2
14:15 18.4 °C 12.6 °C 1014.1 hPa SW 40.2 km/h 40.2 km/h 69 % 0 mm 428 W/m2
14:30 18.2 °C 12.8 °C 1014.1 hPa SW 32.2 km/h 32.2 km/h 71 % 0 mm 233 W/m2
14:45 17.8 °C 12.4 °C 1014.1 hPa SW 32.2 km/h 32.2 km/h 71 % 0 mm 159 W/m2
15:00 17.7 °C 12.6 °C 1014.1 hPa SSW 24.1 km/h 24.1 km/h 72 % 0 mm 242 W/m2
15:15 17.8 °C 12.7 °C 1014.1 hPa SW 25.7 km/h 25.7 km/h 72 % 0 mm 240 W/m2
15:30 17.7 °C 12.6 °C 1013.8 hPa SSW 25.7 km/h 25.7 km/h 72 % 0 mm 140 W/m2
15:45 17.5 °C 12.8 °C 1013.4 hPa SSW 29 km/h 29 km/h 74 % 0 mm 143 W/m2
16:00 17.5 °C 12.6 °C 1013.4 hPa SSW 30.6 km/h 30.6 km/h 73 % 0 mm 154 W/m2
16:15 17.6 °C 12.7 °C 1013.1 hPa SSW 22.5 km/h 22.5 km/h 73 % 0 mm 131 W/m2
16:30 17.6 °C 12.9 °C 1013.1 hPa South 16.1 km/h 16.1 km/h 74 % 0 mm 101 W/m2
16:45 17.7 °C 12.8 °C 1012.8 hPa SSW 20.9 km/h 20.9 km/h 73 % 0 mm 140 W/m2
17:00 17.8 °C 12.9 °C 1012.8 hPa SSW 22.5 km/h 22.5 km/h 73 % 0 mm 106 W/m2
17:15 17.8 °C 12.9 °C 1013.1 hPa SW 25.7 km/h 25.7 km/h 73 % 0 mm 119 W/m2
17:30 17.9 °C 13 °C 1012.8 hPa SW 25.7 km/h 25.7 km/h 73 % 0 mm 75 W/m2
17:45 17.6 °C 12.9 °C 1012.8 hPa SSW 25.7 km/h 25.7 km/h 74 % 0 mm 43 W/m2
18:00 17.3 °C 12.7 °C 1012.8 hPa SSW 22.5 km/h 22.5 km/h 74 % 0 mm 24 W/m2
18:15 17.1 °C 12.7 °C 1012.4 hPa SSW 25.7 km/h 25.7 km/h 75 % 0 mm 18 W/m2
18:30 17 °C 12.6 °C 1012.8 hPa SSW 24.1 km/h 24.1 km/h 75 % 0 mm 16 W/m2
18:45 16.9 °C 12.7 °C 1012.4 hPa South 24.1 km/h 24.1 km/h 76 % 0 mm 11 W/m2
19:00 16.8 °C 12.8 °C 1012.4 hPa South 25.7 km/h 25.7 km/h 77 % 0 mm 6 W/m2
19:15 16.7 °C 12.7 °C 1012.4 hPa SSW 20.9 km/h 20.9 km/h 77 % 0 mm 0 W/m2
19:30 16.7 °C 12.7 °C 1012.4 hPa SSW 19.3 km/h 19.3 km/h 77 % 0 mm 0 W/m2
19:45 16.6 °C 12.6 °C 1012.4 hPa SSW 20.9 km/h 20.9 km/h 77 % 0 mm 0 W/m2
20:08 16.5 °C 12.7 °C 1012.4 hPa SSW 20.9 km/h 20.9 km/h 78 % 0 mm 0 W/m2
20:13 16.5 °C 12.7 °C 1012.4 hPa South 12.9 km/h 22.5 km/h 78 % 0 mm 0 W/m2
20:18 16.5 °C 12.7 °C 1012.4 hPa South 12.9 km/h 25.7 km/h 78 % 0 mm 0 W/m2
20:27 16.4 °C 12.6 °C 1012.1 hPa SSW 17.7 km/h 20.9 km/h 78 % 0 mm 0 W/m2
20:32 16.4 °C 12.6 °C 1012.1 hPa South 14.5 km/h 20.9 km/h 78 % 0 mm 0 W/m2
20:37 16.4 °C 12.6 °C 1012.1 hPa South 14.5 km/h 20.9 km/h 78 % 0 mm 0 W/m2
20:42 16.3 °C 12.4 °C 1012.1 hPa South 12.9 km/h 20.9 km/h 78 % 0 mm 0 W/m2
20:47 16.3 °C 12.7 °C 1012.1 hPa South 12.9 km/h 22.5 km/h 79 % 0 mm 0 W/m2
20:52 16.3 °C 12.7 °C 1012.1 hPa South 14.5 km/h 22.5 km/h 79 % 0 mm 0 W/m2
20:57 16.2 °C 12.6 °C 1012.1 hPa SSW 12.9 km/h 22.5 km/h 79 % 0 mm 0 W/m2
21:02 16.2 °C 12.6 °C 1012.1 hPa SSW 12.9 km/h 22.5 km/h 79 % 0 mm 0 W/m2
21:07 16.2 °C 12.7 °C 1012.1 hPa South 11.3 km/h 20.9 km/h 80 % 0 mm 0 W/m2
21:12 16.2 °C 12.7 °C 1012.1 hPa South 11.3 km/h 19.3 km/h 80 % 0 mm 0 W/m2
21:17 16.1 °C 12.7 °C 1012.1 hPa South 9.7 km/h 16.1 km/h 80 % 0 mm 0 W/m2
21:22 16.1 °C 12.8 °C 1012.1 hPa South 11.3 km/h 24.1 km/h 81 % 0 mm 0 W/m2
21:27 16.1 °C 12.8 °C 1012.1 hPa South 9.7 km/h 24.1 km/h 81 % 0 mm 0 W/m2
21:32 16.1 °C 12.8 °C 1012.1 hPa South 9.7 km/h 19.3 km/h 81 % 0 mm 0 W/m2
21:37 16.1 °C 13 °C 1012.1 hPa South 12.9 km/h 24.1 km/h 82 % 0 mm 0 W/m2
21:42 16 °C 12.9 °C 1012.1 hPa SSW 14.5 km/h 29 km/h 82 % 0 mm 0 W/m2
21:47 15.9 °C 12.8 °C 1012.1 hPa SSW 14.5 km/h 29 km/h 82 % 0 mm 0 W/m2
21:52 15.9 °C 12.8 °C 1012.1 hPa SSW 12.9 km/h 22.5 km/h 82 % 0 mm 0 W/m2
21:57 15.9 °C 13 °C 1012.1 hPa SSW 12.9 km/h 24.1 km/h 83 % 0 mm 0 W/m2
22:02 15.8 °C 13.1 °C 1012.1 hPa SSW 14.5 km/h 29 km/h 84 % 0 mm 0 W/m2
22:07 15.7 °C 13.2 °C 1011.7 hPa SSW 14.5 km/h 29 km/h 85 % 0 mm 0 W/m2
22:12 15.5 °C 13.2 °C 1012.1 hPa SSW 12.9 km/h 22.5 km/h 86 % 0 mm 0 W/m2
22:17 15.3 °C 13.2 °C 1012.1 hPa SSW 11.3 km/h 20.9 km/h 87 % 0.25 mm 0 W/m2
22:23 15.2 °C 13.2 °C 1011.7 hPa South 9.7 km/h 17.7 km/h 88 % 0.25 mm 0 W/m2
22:28 15.1 °C 13.1 °C 1011.7 hPa SSW 6.4 km/h 14.5 km/h 88 % 0.25 mm 0 W/m2
22:33 15.1 °C 13.1 °C 1011.7 hPa South 4.8 km/h 17.7 km/h 88 % 0.25 mm 0 W/m2
22:38 15 °C 13.2 °C 1011.7 hPa SSE 6.4 km/h 17.7 km/h 89 % 0.25 mm 0 W/m2
22:43 14.9 °C 13.1 °C 1011.7 hPa SSE 6.4 km/h 16.1 km/h 89 % 0.25 mm 0 W/m2
22:48 14.9 °C 13.1 °C 1011.7 hPa SSE 8 km/h 16.1 km/h 89 % 0.25 mm 0 W/m2
22:53 14.9 °C 13.1 °C 1011.7 hPa SSE 9.7 km/h 16.1 km/h 89 % 0.25 mm 0 W/m2
22:58 14.8 °C 13 °C 1011.7 hPa SSE 8 km/h 16.1 km/h 89 % 0.25 mm 0 W/m2
23:03 14.8 °C 13 °C 1012.1 hPa South 6.4 km/h 16.1 km/h 89 % 0.25 mm 0 W/m2
23:08 14.8 °C 13 °C 1011.7 hPa South 8 km/h 16.1 km/h 89 % 0.25 mm 0 W/m2
23:13 14.8 °C 13 °C 1011.7 hPa SSE 6.4 km/h 14.5 km/h 89 % 0 mm 0 W/m2
23:18 14.7 °C 12.9 °C 1012.1 hPa SE 4.8 km/h 11.3 km/h 89 % 0 mm 0 W/m2
23:23 14.7 °C 12.9 °C 1011.7 hPa SE 4.8 km/h 16.1 km/h 89 % 0 mm 0 W/m2
23:28 14.7 °C 12.9 °C 1012.1 hPa SE 6.4 km/h 16.1 km/h 89 % 0 mm 0 W/m2
23:33 14.7 °C 12.9 °C 1012.1 hPa SSE 4.8 km/h 16.1 km/h 89 % 0 mm 0 W/m2
23:38 14.7 °C 12.9 °C 1011.7 hPa South 4.8 km/h 11.3 km/h 89 % 0 mm 0 W/m2
23:43 14.7 °C 12.9 °C 1012.1 hPa SE 6.4 km/h 11.3 km/h 89 % 0 mm 0 W/m2
23:48 14.7 °C 12.9 °C 1011.7 hPa SE 3.2 km/h 11.3 km/h 89 % 0 mm 0 W/m2
23:53 14.7 °C 12.9 °C 1012.1 hPa ESE 3.2 km/h 9.7 km/h 89 % 0 mm 0 W/m2
23:58 14.6 °C 12.8 °C 1011.7 hPa SSE 4.8 km/h 11.3 km/h 89 % 0 mm 0 W/m2
Delerius-Weather
Compliments of Weather Underground - 1.75 mb

Data updates at regular intervals.